Time;durP1;ratioP1;P1;durP2;ratioP2;P2;SDS_P1;SDS_P2;PMS_P1;PMS_P2;Temp;Humidity;BMP_temperature;BMP_pressure;BME280_temperature;BME280_humidity;BME280_pressure;Samples;Min_cycle;Max_cycle;Signal;HPM_P1;HPM_P2
2024/03/14 00:02:17;;;;;;;5.82;3.88;;;12.00;94.00;;;;;;5066229;28;20479;-65
2024/03/14 00:04:43;;;;;;;5.07;3.70;;;12.00;94.00;;;;;;5071281;28;20447;-65
2024/03/14 00:07:08;;;;;;;4.75;3.22;;;12.00;94.00;;;;;;5067843;28;20028;-65
2024/03/14 00:09:34;;;;;;;5.47;3.90;;;12.00;94.00;;;;;;5071484;28;20103;-66
2024/03/14 00:12:00;;;;;;;4.10;3.30;;;11.90;94.00;;;;;;5074103;28;20012;-65
2024/03/14 00:14:25;;;;;;;5.03;3.40;;;11.90;94.00;;;;;;5074142;28;20024;-66
2024/03/14 00:16:54;;;;;;;4.80;2.88;;;11.90;94.10;;;;;;5069911;28;20024;-64
2024/03/14 00:19:20;;;;;;;3.45;2.60;;;11.90;94.10;;;;;;5066913;28;20047;-65
2024/03/14 00:21:48;;;;;;;3.00;2.15;;;11.90;94.10;;;;;;5071855;28;20029;-64
2024/03/14 00:24:14;;;;;;;3.88;2.72;;;11.90;94.10;;;;;;5071407;28;20039;-66
2024/03/14 00:26:40;;;;;;;4.82;3.38;;;11.90;94.10;;;;;;5074374;28;20063;-65
2024/03/14 00:29:05;;;;;;;5.57;3.75;;;11.90;94.10;;;;;;5070191;28;20095;-64
2024/03/14 00:31:40;;;;;;;4.00;2.88;;;11.90;94.10;;;;;;5071504;28;20028;-65
2024/03/14 00:34:07;;;;;;;3.97;2.80;;;11.90;94.10;;;;;;5071415;28;20353;-65
2024/03/14 00:36:37;;;;;;;4.47;3.17;;;11.80;94.10;;;;;;5070443;28;20483;-66
2024/03/14 00:39:06;;;;;;;5.35;2.90;;;11.80;94.00;;;;;;5069538;28;20027;-65
2024/03/14 00:41:34;;;;;;;3.47;2.60;;;11.80;94.10;;;;;;5070676;28;20470;-66
2024/03/14 00:44:01;;;;;;;3.35;2.40;;;11.80;94.10;;;;;;5069514;28;20031;-69
2024/03/14 00:46:28;;;;;;;4.07;2.67;;;11.80;94.40;;;;;;5072432;28;20066;-64
2024/03/14 00:48:54;;;;;;;3.47;2.67;;;11.80;94.10;;;;;;5074597;28;20064;-65
2024/03/14 00:51:19;;;;;;;3.65;2.60;;;11.80;94.10;;;;;;5071359;28;20067;-65
2024/03/14 00:53:45;;;;;;;4.28;2.60;;;11.70;94.10;;;;;;5072350;28;20016;-66
2024/03/14 00:56:15;;;;;;;3.58;2.72;;;11.70;94.10;;;;;;5071424;28;20033;-64
2024/03/14 00:58:41;;;;;;;3.42;2.70;;;11.70;94.10;;;;;;5071833;28;20387;-65
2024/03/14 01:01:07;;;;;;;6.00;3.10;;;11.70;94.20;;;;;;5069553;28;20091;-65
2024/03/14 01:03:33;;;;;;;3.78;2.90;;;11.60;94.20;;;;;;5071676;28;20070;-66
2024/03/14 01:05:58;;;;;;;3.47;2.60;;;11.60;94.20;;;;;;5070179;28;20610;-66
2024/03/14 01:08:24;;;;;;;3.38;2.53;;;11.60;94.20;;;;;;5071544;28;20029;-64
2024/03/14 01:10:50;;;;;;;2.20;2.00;;;11.60;94.20;;;;;;5069696;28;20021;-66
2024/03/14 01:13:15;;;;;;;2.95;2.40;;;11.60;94.20;;;;;;5072844;28;20108;-64
2024/03/14 01:15:41;;;;;;;3.13;2.47;;;11.60;94.20;;;;;;5070332;28;20020;-64
2024/03/14 01:18:07;;;;;;;3.30;2.63;;;11.60;94.30;;;;;;5071004;28;20040;-64
2024/03/14 01:20:33;;;;;;;4.63;2.83;;;11.60;94.30;;;;;;5072461;28;20035;-65
2024/03/14 01:22:59;;;;;;;3.90;2.90;;;11.60;94.30;;;;;;5070845;28;20822;-65
2024/03/14 01:25:24;;;;;;;3.38;2.53;;;11.60;94.30;;;;;;5070281;28;20027;-65
2024/03/14 01:27:50;;;;;;;4.32;2.67;;;11.60;94.30;;;;;;5069727;28;20128;-65
2024/03/14 01:30:16;;;;;;;3.65;2.30;;;11.60;94.30;;;;;;5072389;28;20029;-66
2024/03/14 01:32:41;;;;;;;3.33;2.40;;;11.60;94.30;;;;;;5071009;28;20173;-67
2024/03/14 01:35:08;;;;;;;3.92;2.63;;;11.60;94.30;;;;;;5067897;28;20029;-66
2024/03/14 01:37:34;;;;;;;3.05;2.30;;;11.60;94.30;;;;;;5069333;28;20029;-67
2024/03/14 01:40:01;;;;;;;4.72;2.92;;;11.50;94.30;;;;;;5072944;28;20066;-67
2024/03/14 01:42:27;;;;;;;3.17;2.33;;;11.50;94.30;;;;;;5070521;28;20021;-67
2024/03/14 01:44:57;;;;;;;3.55;2.50;;;11.50;94.40;;;;;;5070146;28;20024;-66
2024/03/14 01:47:26;;;;;;;3.38;2.65;;;11.50;94.40;;;;;;5069905;28;20520;-67
2024/03/14 01:49:52;;;;;;;4.80;3.08;;;11.50;94.40;;;;;;5071694;28;20106;-66
2024/03/14 01:52:18;;;;;;;4.63;3.60;;;11.50;94.40;;;;;;5069533;28;20631;-66
2024/03/14 01:54:44;;;;;;;4.78;3.30;;;11.50;94.50;;;;;;5068454;28;20021;-67
2024/03/14 01:57:10;;;;;;;4.20;3.20;;;11.40;94.50;;;;;;5071996;28;20676;-65
2024/03/14 01:59:37;;;;;;;6.93;4.28;;;11.40;94.50;;;;;;5070966;28;20086;-65
2024/03/14 02:02:03;;;;;;;5.18;3.92;;;11.40;94.60;;;;;;5069474;28;20025;-67
2024/03/14 02:04:41;;;;;;;4.38;3.58;;;11.30;94.60;;;;;;5070968;28;20066;-66
2024/03/14 02:07:13;;;;;;;6.53;4.78;;;11.40;94.70;;;;;;5065457;28;20052;-66
2024/03/14 02:09:40;;;;;;;5.68;3.75;;;11.30;94.70;;;;;;5068267;28;20486;-65
2024/03/14 02:12:07;;;;;;;6.45;4.50;;;11.30;94.80;;;;;;5071050;28;20028;-65
2024/03/14 02:14:33;;;;;;;5.45;3.92;;;11.30;94.90;;;;;;5069902;28;20095;-65
2024/03/14 02:16:58;;;;;;;4.65;3.63;;;11.30;94.90;;;;;;5069936;28;20108;-65
2024/03/14 02:19:24;;;;;;;6.28;4.93;;;11.30;94.90;;;;;;5068646;28;20143;-65
2024/03/14 02:21:49;;;;;;;8.45;5.43;;;11.30;95.20;;;;;;5070430;28;20107;-66
2024/03/14 02:24:17;;;;;;;7.55;5.68;;;11.30;95.00;;;;;;5068913;28;20056;-65
2024/03/14 02:26:43;;;;;;;7.88;5.35;;;11.30;95.00;;;;;;5069601;28;20024;-64
2024/03/14 02:29:09;;;;;;;8.02;5.50;;;11.20;95.10;;;;;;5064394;28;20025;-65
2024/03/14 02:31:35;;;;;;;8.25;5.95;;;11.30;95.10;;;;;;5067324;28;20062;-65
2024/03/14 02:34:04;;;;;;;7.65;5.75;;;11.20;95.10;;;;;;5068342;28;20087;-65
2024/03/14 02:36:31;;;;;;;8.65;5.63;;;11.20;95.10;;;;;;5068485;28;20031;-65
2024/03/14 02:38:56;;;;;;;9.13;6.78;;;11.20;95.20;;;;;;5068596;28;20020;-65
2024/03/14 02:41:22;;;;;;;9.25;6.65;;;11.20;95.20;;;;;;5070106;28;20078;-64
2024/03/14 02:43:52;;;;;;;9.35;7.03;;;11.20;95.20;;;;;;5065741;28;20063;-65
2024/03/14 02:46:18;;;;;;;9.65;6.85;;;11.20;95.30;;;;;;5068741;28;20103;-65
2024/03/14 02:48:44;;;;;;;8.63;6.50;;;11.20;95.30;;;;;;5067500;28;20123;-66
2024/03/14 02:51:10;;;;;;;11.18;7.53;;;11.20;95.40;;;;;;5068174;28;20028;-65
2024/03/14 02:53:36;;;;;;;7.63;5.72;;;11.10;95.40;;;;;;5070070;28;20021;-66
2024/03/14 02:56:02;;;;;;;8.88;5.82;;;11.10;95.40;;;;;;5071927;28;20074;-65
2024/03/14 02:58:28;;;;;;;9.00;6.45;;;11.10;95.40;;;;;;5074502;28;20424;-64
2024/03/14 03:00:53;;;;;;;8.98;6.30;;;11.10;95.40;;;;;;5073450;28;20070;-64
2024/03/14 03:03:19;;;;;;;9.30;6.90;;;11.10;95.40;;;;;;5076393;28;20070;-63
2024/03/14 03:05:48;;;;;;;7.97;5.63;;;11.10;95.50;;;;;;5078164;28;20032;-64
2024/03/14 03:08:17;;;;;;;9.23;5.93;;;11.10;95.50;;;;;;5068360;28;20020;-65
2024/03/14 03:10:42;;;;;;;8.38;6.00;;;11.10;95.50;;;;;;5066530;28;20366;-64
2024/03/14 03:13:09;;;;;;;7.82;5.60;;;11.10;95.50;;;;;;5070987;28;20020;-66
2024/03/14 03:15:35;;;;;;;7.63;5.53;;;11.10;95.60;;;;;;5065973;28;20021;-64
2024/03/14 03:18:01;;;;;;;8.80;6.28;;;11.10;95.60;;;;;;5070027;28;20031;-65
2024/03/14 03:20:26;;;;;;;9.32;5.82;;;11.00;95.60;;;;;;5067793;28;20056;-65
2024/03/14 03:23:06;;;;;;;10.20;6.38;;;11.00;95.60;;;;;;5078412;28;20029;-66
2024/03/14 03:25:33;;;;;;;8.75;5.93;;;11.00;95.60;;;;;;5066451;28;20043;-65
2024/03/14 03:28:00;;;;;;;9.05;5.78;;;11.00;95.60;;;;;;5067994;28;20020;-65
2024/03/14 03:30:25;;;;;;;8.13;5.63;;;11.00;95.60;;;;;;5068045;28;20533;-65
2024/03/14 03:32:51;;;;;;;9.57;5.20;;;10.90;95.70;;;;;;5076112;28;20051;-65
2024/03/14 03:35:18;;;;;;;7.68;5.00;;;10.90;95.70;;;;;;5069506;28;20039;-64
2024/03/14 03:37:44;;;;;;;7.68;5.10;;;10.90;95.70;;;;;;5074886;28;20025;-65
2024/03/14 03:40:14;;;;;;;7.85;5.68;;;10.90;95.70;;;;;;5081710;28;20390;-65
2024/03/14 03:42:45;;;;;;;6.35;4.82;;;10.90;95.70;;;;;;5076888;28;20029;-66
2024/03/14 03:45:12;;;;;;;9.63;5.97;;;10.90;95.70;;;;;;5068539;28;20500;-66
2024/03/14 03:47:39;;;;;;;7.65;5.10;;;10.90;95.70;;;;;;5079433;28;20640;-66
2024/03/14 03:50:08;;;;;;;5.95;4.50;;;10.90;95.70;;;;;;5072625;28;20478;-65
2024/03/14 03:52:39;;;;;;;7.80;5.93;;;10.90;95.70;;;;;;5084977;28;20027;-65
2024/03/14 03:55:06;;;;;;;8.65;6.07;;;10.90;95.70;;;;;;5074089;28;20028;-67
2024/03/14 03:57:32;;;;;;;10.70;6.88;;;10.80;95.70;;;;;;5073848;28;20035;-66
2024/03/14 03:59:59;;;;;;;9.32;6.70;;;10.80;95.70;;;;;;5076555;28;20044;-68
2024/03/14 04:02:26;;;;;;;7.65;5.13;;;10.80;95.80;;;;;;5072077;28;20024;-68
2024/03/14 04:04:58;;;;;;;6.53;4.43;;;10.80;95.80;;;;;;5083049;28;20024;-66
2024/03/14 04:07:33;;;;;;;;;;;10.80;95.80;;;;;;5075094;28;20028;-66
2024/03/14 04:10:00;;;;;;;10.18;6.13;;;10.80;95.80;;;;;;5077710;28;19912;-67
2024/03/14 04:12:26;;;;;;;8.30;5.60;;;10.80;95.90;;;;;;5077300;28;21540;-65
2024/03/14 04:14:52;;;;;;;10.13;6.13;;;10.70;95.90;;;;;;5076039;28;20035;-67
2024/03/14 04:17:18;;;;;;;8.23;5.97;;;10.70;95.90;;;;;;5073621;28;20082;-66
2024/03/14 04:19:45;;;;;;;9.07;6.05;;;10.70;95.90;;;;;;5069873;28;20036;-66
2024/03/14 04:22:11;;;;;;;9.20;6.20;;;10.70;95.90;;;;;;5079235;28;20109;-68
2024/03/14 04:24:37;;;;;;;9.40;6.22;;;10.70;95.90;;;;;;5078956;28;20484;-67
2024/03/14 04:27:06;;;;;;;10.05;6.47;;;10.70;96.00;;;;;;5070144;28;20036;-66
2024/03/14 04:29:32;;;;;;;11.32;8.18;;;10.70;96.00;;;;;;5075460;28;20051;-66
2024/03/14 04:31:57;;;;;;;9.13;6.00;;;10.60;96.00;;;;;;5074288;28;20036;-65
2024/03/14 04:34:26;;;;;;;11.48;7.25;;;10.60;96.10;;;;;;5078762;28;20594;-66
2024/03/14 04:36:51;;;;;;;11.13;6.93;;;10.60;96.10;;;;;;5067256;28;20025;-66
2024/03/14 04:39:19;;;;;;;11.68;8.18;;;10.60;96.20;;;;;;5073896;28;20174;-65
2024/03/14 04:41:45;;;;;;;9.82;7.00;;;10.50;96.30;;;;;;5070877;28;20449;-65
2024/03/14 04:44:11;;;;;;;10.20;7.07;;;10.50;96.40;;;;;;5080101;28;20035;-66
2024/03/14 04:46:41;;;;;;;9.43;6.00;;;10.50;96.40;;;;;;5073864;28;20036;-66
2024/03/14 04:49:08;;;;;;;14.48;8.48;;;10.60;96.40;;;;;;5073645;28;20261;-65
2024/03/14 04:51:34;;;;;;;8.60;6.05;;;10.50;96.40;;;;;;5070346;28;20427;-65
2024/03/14 04:54:00;;;;;;;9.80;6.68;;;10.50;96.40;;;;;;5070376;28;20027;-66
2024/03/14 04:56:25;;;;;;;8.73;6.30;;;10.50;96.40;;;;;;5072455;28;20021;-65
2024/03/14 04:58:51;;;;;;;10.70;6.65;;;10.50;96.40;;;;;;5080736;28;20051;-65
2024/03/14 05:01:16;;;;;;;10.32;6.45;;;10.50;96.40;;;;;;5075426;28;20032;-65
2024/03/14 05:03:43;;;;;;;11.13;7.35;;;10.50;96.40;;;;;;5084865;28;20024;-66
2024/03/14 05:06:09;;;;;;;10.10;6.28;;;10.40;96.40;;;;;;5076937;28;20028;-66
2024/03/14 05:08:34;;;;;;;8.68;6.05;;;10.40;96.50;;;;;;5073758;28;20028;-66
2024/03/14 05:11:00;;;;;;;9.68;6.25;;;10.40;96.50;;;;;;5073524;28;20031;-66
2024/03/14 05:13:25;;;;;;;9.70;6.72;;;10.40;96.50;;;;;;5073305;28;20021;-66
2024/03/14 05:15:51;;;;;;;10.93;7.38;;;10.40;96.60;;;;;;5071426;28;20044;-67
2024/03/14 05:18:16;;;;;;;8.50;6.40;;;10.40;96.60;;;;;;5071971;28;20028;-67
2024/03/14 05:20:42;;;;;;;8.77;6.72;;;10.40;96.70;;;;;;5072920;28;20119;-64
2024/03/14 05:23:07;;;;;;;8.68;6.13;;;10.30;96.70;;;;;;5071632;28;20052;-65
2024/03/14 05:25:33;;;;;;;9.15;6.30;;;10.30;96.70;;;;;;5071769;28;20032;-65
2024/03/14 05:27:58;;;;;;;8.35;5.60;;;10.30;96.70;;;;;;5070844;28;20029;-66
2024/03/14 05:30:24;;;;;;;8.23;5.45;;;10.30;96.80;;;;;;5074697;28;20036;-66
2024/03/14 05:32:51;;;;;;;9.18;5.95;;;10.30;96.80;;;;;;5068051;28;20024;-66
2024/03/14 05:35:16;;;;;;;7.88;4.90;;;10.30;96.80;;;;;;5072957;28;20020;-66
2024/03/14 05:37:42;;;;;;;8.65;6.03;;;10.30;96.80;;;;;;5073854;28;20024;-66
2024/03/14 05:40:12;;;;;;;7.80;5.43;;;10.30;96.80;;;;;;5078400;28;20028;-67
2024/03/14 05:42:39;;;;;;;8.32;5.63;;;10.20;96.90;;;;;;5073193;28;20028;-66
2024/03/14 05:45:05;;;;;;;8.13;5.65;;;10.20;96.90;;;;;;5079672;28;20012;-65
2024/03/14 05:47:30;;;;;;;7.43;5.10;;;10.20;96.90;;;;;;5070410;28;20483;-65
2024/03/14 05:49:56;;;;;;;8.38;5.20;;;10.20;97.00;;;;;;5068260;28;20395;-66
2024/03/14 05:52:21;;;;;;;9.40;5.95;;;10.20;97.00;;;;;;5069555;28;20025;-67
2024/03/14 05:54:47;;;;;;;7.28;5.45;;;10.20;97.00;;;;;;5072433;28;20024;-68
2024/03/14 05:57:14;;;;;;;7.90;5.38;;;10.20;97.10;;;;;;5070465;28;20771;-66
2024/03/14 05:59:40;;;;;;;7.68;5.78;;;10.20;97.10;;;;;;5071792;28;20048;-66
2024/03/14 06:02:07;;;;;;;8.65;5.68;;;10.20;97.10;;;;;;5072871;28;20584;-66
2024/03/14 06:04:34;;;;;;;7.90;5.57;;;10.10;97.10;;;;;;5068985;28;20056;-66
2024/03/14 06:07:00;;;;;;;7.22;5.38;;;10.20;97.10;;;;;;5069064;28;21587;-66
2024/03/14 06:09:41;;;;;;;7.60;5.45;;;10.20;97.10;;;;;;5069752;28;20032;-69
2024/03/14 06:12:08;;;;;;;7.38;4.97;;;10.20;97.10;;;;;;5075555;28;20047;-68
2024/03/14 06:14:34;;;;;;;6.30;4.50;;;10.20;97.10;;;;;;5070895;28;20021;-68
2024/03/14 06:17:00;;;;;;;7.70;5.22;;;10.20;97.10;;;;;;5074582;28;20024;-67
2024/03/14 06:19:26;;;;;;;9.23;5.63;;;10.20;97.10;;;;;;5072750;28;20123;-68
2024/03/14 06:21:52;;;;;;;6.60;4.78;;;10.20;97.10;;;;;;5075202;28;20506;-67
2024/03/14 06:24:17;;;;;;;8.13;5.15;;;10.20;97.10;;;;;;5071783;28;20035;-68
2024/03/14 06:26:46;;;;;;;5.22;4.07;;;10.20;97.00;;;;;;5072279;28;20524;-68
2024/03/14 06:29:12;;;;;;;6.00;4.10;;;10.20;97.00;;;;;;5067910;28;20398;-66
2024/03/14 06:31:38;;;;;;;5.55;4.00;;;10.30;97.00;;;;;;5069814;28;20107;-68
2024/03/14 06:34:04;;;;;;;5.70;4.00;;;10.30;96.90;;;;;;5070540;28;20043;-68
2024/03/14 06:36:29;;;;;;;5.63;4.15;;;10.30;96.90;;;;;;5070798;28;20483;-67
2024/03/14 06:38:55;;;;;;;5.05;3.50;;;10.30;96.80;;;;;;5071441;28;20078;-66
2024/03/14 06:41:24;;;;;;;5.28;3.70;;;10.40;96.80;;;;;;5073053;28;20024;-67
2024/03/14 06:43:51;;;;;;;6.55;4.60;;;10.40;96.70;;;;;;5068387;28;20040;-67
2024/03/14 06:46:20;;;;;;;7.72;5.25;;;10.40;96.70;;;;;;5068837;28;20036;-68
2024/03/14 06:48:45;;;;;;;6.00;4.30;;;10.40;96.70;;;;;;5067210;28;20039;-67
2024/03/14 06:51:11;;;;;;;5.53;3.58;;;10.40;96.70;;;;;;5070077;28;20012;-68
2024/03/14 06:53:38;;;;;;;4.47;3.35;;;10.50;96.70;;;;;;5068220;28;20409;-66
2024/03/14 06:56:08;;;;;;;5.88;4.00;;;10.60;96.60;;;;;;5066973;28;20024;-67
2024/03/14 06:58:34;;;;;;;6.57;4.93;;;10.60;96.60;;;;;;5077876;28;20606;-67
2024/03/14 07:00:59;;;;;;;4.28;3.42;;;10.60;96.50;;;;;;5071276;28;20020;-67
2024/03/14 07:03:27;;;;;;;6.53;4.63;;;10.70;96.40;;;;;;5066839;28;20025;-66
2024/03/14 07:05:57;;;;;;;6.80;3.90;;;10.70;96.30;;;;;;5066655;28;20025;-69
2024/03/14 07:08:26;;;;;;;4.75;3.60;;;10.80;96.20;;;;;;5071562;28;20024;-66
2024/03/14 07:10:55;;;;;;;4.32;3.15;;;10.90;96.20;;;;;;5069492;28;20048;-66
2024/03/14 07:13:21;;;;;;;4.32;3.30;;;11.00;96.10;;;;;;5070202;28;20418;-68
2024/03/14 07:15:47;;;;;;;5.28;3.25;;;11.00;96.00;;;;;;5068747;28;20025;-67
2024/03/14 07:18:13;;;;;;;3.67;2.80;;;11.10;95.90;;;;;;5072123;28;20025;-66
2024/03/14 07:20:43;;;;;;;5.47;3.45;;;11.20;95.80;;;;;;5066806;28;20032;-66
2024/03/14 07:23:09;;;;;;;4.57;3.30;;;11.20;95.60;;;;;;5067453;28;20020;-68
2024/03/14 07:25:35;;;;;;;6.28;3.80;;;11.20;95.50;;;;;;5067697;28;20028;-66
2024/03/14 07:28:01;;;;;;;5.47;3.90;;;11.20;95.50;;;;;;5075344;28;20478;-67
2024/03/14 07:30:27;;;;;;;5.70;4.03;;;11.30;95.50;;;;;;5079687;28;20039;-68
2024/03/14 07:32:53;;;;;;;5.07;3.95;;;11.30;95.40;;;;;;5074385;28;20016;-66
2024/03/14 07:35:18;;;;;;;5.63;3.55;;;11.40;95.30;;;;;;5067870;28;20047;-66
2024/03/14 07:37:45;;;;;;;5.00;3.08;;;11.40;95.20;;;;;;5070609;28;20099;-66
2024/03/14 07:40:12;;;;;;;4.93;3.70;;;11.40;95.20;;;;;;5068986;28;20025;-66
2024/03/14 07:42:38;;;;;;;6.15;3.90;;;11.40;95.10;;;;;;5069966;28;20516;-67
2024/03/14 07:45:07;;;;;;;4.00;3.15;;;11.50;95.10;;;;;;5080679;28;20154;-66
2024/03/14 07:47:33;;;;;;;4.82;3.25;;;11.60;95.10;;;;;;5065193;28;20032;-66
2024/03/14 07:49:59;;;;;;;4.63;3.17;;;11.60;95.00;;;;;;5062988;28;20115;-66
2024/03/14 07:52:26;;;;;;;5.22;3.25;;;11.70;95.00;;;;;;5068149;28;20056;-66
2024/03/14 07:54:53;;;;;;;5.75;3.35;;;11.70;94.90;;;;;;5067709;28;21597;-67
2024/03/14 07:57:20;;;;;;;3.63;2.90;;;11.80;94.80;;;;;;5067524;28;20074;-66
2024/03/14 07:59:49;;;;;;;3.28;2.40;;;11.90;94.70;;;;;;5069782;28;20017;-67
2024/03/14 08:02:16;;;;;;;4.05;2.63;;;11.90;94.70;;;;;;5054590;28;20039;-68
2024/03/14 08:04:44;;;;;;;5.43;3.88;;;12.00;94.60;;;;;;5069058;28;20027;-67
2024/03/14 08:07:10;;;;;;;4.07;2.95;;;12.00;94.40;;;;;;5075586;28;20024;-67
2024/03/14 08:09:42;;;;;;;4.93;3.30;;;12.10;94.50;;;;;;5067789;28;20031;-66
2024/03/14 08:12:09;;;;;;;4.82;3.45;;;12.20;94.40;;;;;;5064911;28;20032;-68
2024/03/14 08:14:35;;;;;;;4.25;3.25;;;12.20;94.20;;;;;;5075222;28;20038;-66
2024/03/14 08:17:01;;;;;;;4.47;3.10;;;12.20;94.20;;;;;;5073646;28;20370;-66
2024/03/14 08:19:30;;;;;;;3.80;2.65;;;12.20;94.10;;;;;;5069398;28;20036;-67
2024/03/14 08:21:56;;;;;;;4.97;3.60;;;12.30;94.10;;;;;;5074656;28;20378;-66
2024/03/14 08:24:26;;;;;;;5.47;3.58;;;12.30;94.00;;;;;;5076332;28;20024;-67
2024/03/14 08:26:54;;;;;;;3.78;2.97;;;12.40;93.90;;;;;;5075276;28;20070;-66
2024/03/14 08:29:22;;;;;;;3.35;2.53;;;12.40;93.90;;;;;;5076042;28;20048;-67
2024/03/14 08:31:48;;;;;;;4.53;3.17;;;12.50;93.90;;;;;;5072142;28;20028;-67
2024/03/14 08:34:14;;;;;;;3.17;2.50;;;12.50;93.80;;;;;;5078880;28;20034;-68
2024/03/14 08:36:41;;;;;;;3.83;2.92;;;12.60;93.80;;;;;;5083129;28;20020;-68
2024/03/14 08:39:06;;;;;;;4.13;2.90;;;12.70;93.80;;;;;;5073353;28;20039;-66
2024/03/14 08:41:32;;;;;;;4.15;2.88;;;12.70;93.60;;;;;;5071798;28;20478;-68
2024/03/14 08:43:58;;;;;;;4.65;3.45;;;12.80;93.60;;;;;;5084589;28;20039;-67
2024/03/14 08:46:23;;;;;;;3.92;2.53;;;12.90;93.40;;;;;;5075156;28;20359;-66
2024/03/14 08:48:49;;;;;;;3.60;2.55;;;12.90;93.40;;;;;;5074436;28;20067;-66
2024/03/14 08:51:15;;;;;;;3.55;2.80;;;13.00;93.40;;;;;;5069547;28;20415;-68
2024/03/14 08:56:25;;;;;;;6.60;3.78;;;13.00;93.10;;;;;;5073220;28;20097;-66
2024/03/14 08:58:57;;;;;;;4.10;3.20;;;13.10;93.00;;;;;;5081891;28;20866;-67
2024/03/14 09:01:24;;;;;;;4.38;3.35;;;13.10;93.00;;;;;;5073570;28;20017;-68
2024/03/14 09:03:50;;;;;;;4.82;3.00;;;13.10;93.00;;;;;;5075292;28;20024;-66
2024/03/14 09:06:15;;;;;;;4.72;3.67;;;13.30;93.00;;;;;;5073491;28;20028;-69
2024/03/14 09:08:41;;;;;;;4.68;3.45;;;13.30;92.80;;;;;;5074616;28;20078;-67
2024/03/14 09:11:07;;;;;;;3.97;3.03;;;13.40;92.70;;;;;;5072561;28;20052;-68
2024/03/14 09:13:35;;;;;;;5.13;3.72;;;13.50;92.60;;;;;;5070677;28;20052;-67
2024/03/14 09:16:00;;;;;;;5.55;3.88;;;13.50;92.30;;;;;;5077709;28;20016;-70
2024/03/14 09:18:26;;;;;;;4.70;3.15;;;13.60;92.30;;;;;;5062525;28;20024;-68
2024/03/14 09:20:55;;;;;;;4.65;3.53;;;13.60;92.30;;;;;;5067455;28;20091;-67
2024/03/14 09:23:23;;;;;;;4.47;3.25;;;13.60;92.10;;;;;;5074640;28;20073;-66
2024/03/14 09:25:50;;;;;;;3.38;2.63;;;13.70;92.10;;;;;;5071099;28;20028;-69
2024/03/14 09:28:16;;;;;;;2.53;2.33;;;13.70;92.10;;;;;;5065144;28;20107;-67
2024/03/14 09:30:42;;;;;;;5.93;4.07;;;13.80;92.10;;;;;;5073641;28;20111;-68
2024/03/14 09:33:07;;;;;;;5.20;3.40;;;13.80;91.70;;;;;;5072086;28;20024;-67
2024/03/14 09:35:33;;;;;;;6.70;4.10;;;13.90;91.60;;;;;;5072279;28;20017;-69
2024/03/14 09:37:59;;;;;;;5.40;3.53;;;13.90;91.50;;;;;;5068709;28;20055;-68
2024/03/14 09:40:24;;;;;;;4.68;3.47;;;13.90;91.30;;;;;;5071310;28;20036;-67
2024/03/14 09:42:59;;;;;;;4.78;3.38;;;13.90;91.30;;;;;;5069589;28;20496;-67
2024/03/14 09:45:25;;;;;;;5.10;2.92;;;14.00;91.30;;;;;;5068198;28;20024;-67
2024/03/14 09:47:51;;;;;;;4.05;3.10;;;14.10;91.20;;;;;;5068747;28;20638;-67
2024/03/14 09:50:21;;;;;;;3.17;2.35;;;14.20;91.10;;;;;;5068218;28;20073;-68
2024/03/14 09:52:50;;;;;;;5.32;2.92;;;14.30;91.20;;;;;;5069487;28;20025;-67
2024/03/14 09:55:17;;;;;;;4.32;2.80;;;14.30;91.10;;;;;;5074854;28;20108;-67
2024/03/14 09:57:43;;;;;;;4.00;2.45;;;14.30;90.90;;;;;;5062540;28;20509;-69
2024/03/14 10:00:11;;;;;;;4.25;2.60;;;14.40;91.00;;;;;;5064941;28;20037;-66
2024/03/14 10:02:38;;;;;;;4.13;2.72;;;14.40;90.70;;;;;;5067047;28;20107;-67
2024/03/14 10:05:10;;;;;;;3.05;2.50;;;14.40;90.70;;;;;;5070384;28;21596;-68
2024/03/14 10:07:37;;;;;;;3.38;2.50;;;14.40;90.50;;;;;;5067446;28;20154;-67
2024/03/14 10:10:04;;;;;;;3.65;2.20;;;14.40;90.50;;;;;;5067141;28;20479;-68
2024/03/14 10:12:33;;;;;;;3.40;2.78;;;14.40;90.50;;;;;;5075503;28;20017;-67
2024/03/14 10:15:00;;;;;;;2.90;2.40;;;14.40;90.40;;;;;;5072728;28;20028;-68
2024/03/14 10:17:31;;;;;;;3.55;2.50;;;14.40;90.20;;;;;;5068241;28;20629;-67
2024/03/14 10:19:58;;;;;;;3.40;2.40;;;14.50;90.10;;;;;;5072323;28;20090;-68
2024/03/14 10:22:26;;;;;;;3.83;2.80;;;14.50;90.00;;;;;;5074955;28;20047;-67
2024/03/14 10:24:52;;;;;;;3.78;2.58;;;14.60;89.40;;;;;;5066234;28;20028;-67
2024/03/14 10:27:19;;;;;;;2.35;1.98;;;14.60;89.40;;;;;;5067660;28;20513;-68
2024/03/14 10:29:45;;;;;;;2.63;2.20;;;14.70;89.60;;;;;;5069327;28;20753;-65
2024/03/14 10:32:12;;;;;;;3.88;2.38;;;14.70;89.30;;;;;;5071363;28;20030;-66
2024/03/14 10:34:38;;;;;;;2.47;1.92;;;14.80;89.20;;;;;;5068874;28;20028;-66
2024/03/14 10:37:13;;;;;;;3.03;2.33;;;14.90;89.30;;;;;;5075992;28;20021;-66
2024/03/14 10:39:48;;;;;;;2.03;1.80;;;15.00;89.40;;;;;;5076084;28;20115;-66
2024/03/14 10:42:16;;;;;;;5.38;3.80;;;15.10;89.30;;;;;;5070282;28;20127;-65
2024/03/14 10:44:42;;;;;;;4.03;3.30;;;15.20;88.00;;;;;;5073125;28;20020;-67
2024/03/14 10:47:08;;;;;;;3.28;2.85;;;15.10;87.20;;;;;;5074739;28;20058;-67
2024/03/14 10:49:37;;;;;;;3.30;2.50;;;15.10;87.30;;;;;;5073926;28;20030;-65
2024/03/14 10:52:04;;;;;;;3.92;2.55;;;15.20;87.10;;;;;;5069185;28;20625;-67
2024/03/14 10:54:34;;;;;;;2.75;2.25;;;15.20;86.90;;;;;;5072497;28;20055;-65
2024/03/14 10:57:03;;;;;;;3.38;2.60;;;15.30;86.90;;;;;;5064826;28;20024;-67
2024/03/14 10:59:30;;;;;;;2.38;2.17;;;15.30;85.80;;;;;;5064736;28;20667;-67
2024/03/14 11:01:56;;;;;;;1.70;1.60;;;15.40;86.40;;;;;;5075615;28;20490;-68
2024/03/14 11:04:23;;;;;;;2.55;2.17;;;15.50;86.50;;;;;;5067358;28;20059;-67
2024/03/14 11:06:50;;;;;;;4.10;3.20;;;15.50;86.30;;;;;;5073494;28;20074;-68
2024/03/14 11:09:48;;;;;;;4.43;3.03;;;15.60;85.20;;;;;;5069767;28;20024;-68
2024/03/14 11:12:24;;;;;;;4.30;2.80;;;15.60;84.70;;;;;;5063427;28;20068;-66
2024/03/14 11:15:02;;;;;;;2.88;2.33;;;15.60;83.90;;;;;;5065818;28;20031;-66
2024/03/14 11:17:31;;;;;;;3.25;2.58;;;15.60;83.60;;;;;;5072533;28;20032;-67
2024/03/14 11:20:06;;;;;;;2.80;2.22;;;15.60;83.60;;;;;;5066958;28;20024;-68
2024/03/14 11:22:33;;;;;;;2.00;1.63;;;15.70;83.80;;;;;;5064808;28;20029;-68
2024/03/14 11:25:00;;;;;;;3.20;2.03;;;15.80;84.10;;;;;;5071702;28;20432;-67
2024/03/14 11:27:28;;;;;;;4.40;2.33;;;16.00;83.90;;;;;;5074074;28;20430;-67
2024/03/14 11:29:54;;;;;;;3.35;2.35;;;16.00;82.40;;;;;;5069825;28;20021;-67
2024/03/14 11:32:24;;;;;;;2.50;2.03;;;16.00;82.30;;;;;;5077064;28;20554;-66
2024/03/14 11:34:50;;;;;;;2.05;1.60;;;16.10;82.40;;;;;;5065766;28;20029;-67
2024/03/14 11:37:17;;;;;;;2.00;1.80;;;16.20;82.70;;;;;;5072441;28;20387;-67
2024/03/14 11:39:47;;;;;;;2.40;1.90;;;16.30;82.60;;;;;;5070944;28;20063;-67
2024/03/14 11:42:18;;;;;;;3.00;2.63;;;16.40;82.20;;;;;;5072120;28;20081;-68
2024/03/14 11:44:45;;;;;;;3.40;2.45;;;16.40;80.60;;;;;;5072409;28;21505;-68
2024/03/14 11:47:14;;;;;;;3.05;2.13;;;16.50;80.60;;;;;;5074507;28;20389;-68
2024/03/14 11:49:43;;;;;;;2.47;1.90;;;16.60;80.50;;;;;;5071303;28;20543;-67
2024/03/14 11:52:11;;;;;;;2.08;1.88;;;16.70;80.40;;;;;;5071632;28;20048;-67
2024/03/14 11:54:37;;;;;;;2.75;2.03;;;16.80;79.80;;;;;;5067700;28;20078;-67
2024/03/14 11:57:04;;;;;;;3.95;2.13;;;16.90;78.60;;;;;;5067436;28;20104;-68
2024/03/14 11:59:30;;;;;;;2.40;2.10;;;17.00;77.40;;;;;;5067075;28;20037;-68
2024/03/14 12:01:55;;;;;;;2.78;2.20;;;17.10;76.40;;;;;;5076499;28;20023;-69
2024/03/14 12:04:21;;;;;;;1.88;1.70;;;17.10;75.80;;;;;;5071501;28;20032;-67
2024/03/14 12:06:50;;;;;;;2.10;1.80;;;17.10;76.00;;;;;;5077069;28;20023;-68
2024/03/14 12:09:22;;;;;;;3.05;2.38;;;17.10;75.40;;;;;;5071885;28;20450;-66
2024/03/14 12:11:51;;;;;;;2.22;1.95;;;17.20;73.60;;;;;;5070827;28;20074;-68
2024/03/14 12:14:20;;;;;;;2.78;2.00;;;17.20;73.70;;;;;;5072103;28;20021;-68
2024/03/14 12:16:47;;;;;;;2.28;1.95;;;17.40;74.50;;;;;;5082532;28;20020;-67
2024/03/14 12:19:19;;;;;;;2.13;1.90;;;17.50;73.70;;;;;;5072793;28;20035;-68
2024/03/14 12:21:53;;;;;;;3.03;1.80;;;17.60;73.60;;;;;;5076994;28;20029;-68
2024/03/14 12:24:19;;;;;;;2.90;2.40;;;17.70;73.50;;;;;;5072684;28;20055;-68
2024/03/14 12:26:46;;;;;;;2.88;2.28;;;17.80;72.80;;;;;;5079025;28;20051;-68
2024/03/14 12:29:12;;;;;;;2.15;1.90;;;17.80;72.30;;;;;;5068825;28;20039;-69
2024/03/14 12:31:40;;;;;;;1.85;1.65;;;17.80;72.00;;;;;;5063855;28;20390;-67
2024/03/14 12:34:06;;;;;;;2.17;1.60;;;17.90;72.50;;;;;;5069850;28;20070;-67
2024/03/14 12:36:32;;;;;;;2.08;1.85;;;18.00;72.50;;;;;;5077495;28;20021;-67
2024/03/14 12:38:58;;;;;;;2.45;1.60;;;18.10;72.50;;;;;;5070162;28;20025;-67
2024/03/14 12:41:25;;;;;;;2.40;1.90;;;18.20;72.20;;;;;;5068942;28;20487;-66
2024/03/14 12:43:52;;;;;;;2.60;2.08;;;18.20;71.00;;;;;;5075205;28;20040;-66
2024/03/14 12:46:19;;;;;;;2.25;1.77;;;18.30;70.80;;;;;;5062590;28;20024;-66
2024/03/14 12:48:46;;;;;;;3.45;2.05;;;18.40;71.20;;;;;;5081943;28;20024;-67